createdAt,value
2022-11-15T00:01:35.473Z,4.50
2022-11-15T00:04:02.284Z,4.40
2022-11-15T00:06:29.112Z,4.40
2022-11-15T00:08:56.202Z,4.30
2022-11-15T00:11:23.010Z,4.30
2022-11-15T00:13:49.855Z,4.20
2022-11-15T00:16:16.678Z,4.30
2022-11-15T00:18:49.247Z,4.20
2022-11-15T00:21:18.303Z,4.20
2022-11-15T00:23:45.094Z,4.20
2022-11-15T00:26:16.311Z,4.30
2022-11-15T00:28:43.522Z,4.10
2022-11-15T00:31:12.932Z,4.20
2022-11-15T00:33:39.984Z,4.00
2022-11-15T00:36:10.795Z,4.00
2022-11-15T00:38:39.453Z,4.10
2022-11-15T00:41:09.990Z,4.10
2022-11-15T00:43:37.964Z,4.20
2022-11-15T00:46:05.147Z,4.10
2022-11-15T00:48:32.828Z,4.00
2022-11-15T00:50:59.734Z,3.80
2022-11-15T00:53:26.691Z,3.70
2022-11-15T00:55:54.033Z,3.60
2022-11-15T00:58:21.031Z,3.60
2022-11-15T01:00:47.803Z,3.70
2022-11-15T01:03:14.578Z,3.60
2022-11-15T01:05:41.461Z,4.20
2022-11-15T01:08:14.607Z,3.70
2022-11-15T01:10:42.032Z,3.60
2022-11-15T01:13:09.082Z,3.70
2022-11-15T01:15:39.587Z,3.70
2022-11-15T01:18:06.436Z,3.70
2022-11-15T01:20:33.238Z,3.80
2022-11-15T01:22:59.987Z,3.70
2022-11-15T01:25:26.805Z,3.70
2022-11-15T01:27:53.616Z,3.70
2022-11-15T01:30:20.558Z,3.60
2022-11-15T01:32:47.536Z,3.60
2022-11-15T01:35:14.543Z,3.60
2022-11-15T01:37:42.741Z,3.60
2022-11-15T01:40:10.470Z,3.70
2022-11-15T01:42:37.439Z,3.60
2022-11-15T01:45:04.788Z,3.70
2022-11-15T01:47:39.206Z,3.70
2022-11-15T01:50:13.248Z,3.80
2022-11-15T01:52:41.574Z,3.80
2022-11-15T01:55:17.031Z,3.80
2022-11-15T01:57:47.677Z,3.80
2022-11-15T02:00:15.318Z,3.80
2022-11-15T02:02:42.164Z,3.80
2022-11-15T02:05:09.279Z,3.80
2022-11-15T02:07:36.842Z,3.70
2022-11-15T02:10:14.223Z,3.60
2022-11-15T02:12:41.685Z,3.40
2022-11-15T02:15:09.763Z,3.20
2022-11-15T02:17:55.695Z,3.10
2022-11-15T02:20:40.557Z,3.10
2022-11-15T02:23:25.217Z,3.00
2022-11-15T02:26:10.795Z,3.00
2022-11-15T02:29:11.395Z,3.00
2022-11-15T02:31:52.613Z,2.90
2022-11-15T02:34:31.282Z,2.80
2022-11-15T02:37:06.741Z,2.80
2022-11-15T02:40:04.349Z,2.80
2022-11-15T02:42:54.931Z,2.90
2022-11-15T02:45:31.303Z,3.00
2022-11-15T02:48:00.425Z,3.00
2022-11-15T02:50:30.403Z,2.90
2022-11-15T02:52:57.735Z,2.90
2022-11-15T02:55:36.038Z,3.00
2022-11-15T02:58:38.325Z,2.80
2022-11-15T03:01:21.820Z,2.80
2022-11-15T03:04:07.627Z,2.70
2022-11-15T03:06:34.327Z,2.60
2022-11-15T03:09:36.023Z,2.60
2022-11-15T03:12:13.461Z,2.60
2022-11-15T03:14:50.921Z,3.00
2022-11-15T03:17:24.800Z,2.80
2022-11-15T03:19:54.970Z,2.80
2022-11-15T03:22:25.586Z,2.60
2022-11-15T03:24:57.013Z,2.50
2022-11-15T03:27:27.509Z,2.70
2022-11-15T03:30:00.812Z,2.50
2022-11-15T03:32:31.818Z,2.50
2022-11-15T03:35:08.781Z,2.60
2022-11-15T03:37:38.233Z,2.70
2022-11-15T03:40:06.145Z,2.80
2022-11-15T03:42:47.274Z,2.90
2022-11-15T03:45:19.306Z,2.90
2022-11-15T03:48:03.412Z,3.00
2022-11-15T03:50:31.044Z,2.90
2022-11-15T03:52:59.749Z,2.90
2022-11-15T03:55:26.633Z,2.90
2022-11-15T03:57:56.872Z,2.80
2022-11-15T04:00:24.111Z,2.70
2022-11-15T04:02:50.850Z,2.50
2022-11-15T04:05:17.765Z,2.50
2022-11-15T04:07:44.634Z,2.40
2022-11-15T04:10:12.758Z,2.50
2022-11-15T04:12:44.178Z,2.50
2022-11-15T04:15:16.503Z,2.50
2022-11-15T04:17:45.063Z,2.50
2022-11-15T04:20:38.621Z,2.50
2022-11-15T04:23:31.845Z,2.40
2022-11-15T04:26:02.435Z,2.40
2022-11-15T04:28:33.816Z,2.40
2022-11-15T04:31:14.609Z,2.40
2022-11-15T04:33:43.093Z,2.40
2022-11-15T04:36:28.999Z,2.30
2022-11-15T04:38:56.151Z,2.40
2022-11-15T04:44:07.916Z,2.40
2022-11-15T04:46:42.273Z,2.40
2022-11-15T04:49:14.987Z,2.50
2022-11-15T04:51:41.946Z,2.50
2022-11-15T04:54:08.684Z,2.50
2022-11-15T04:56:35.515Z,2.60
2022-11-15T04:59:02.485Z,2.60
2022-11-15T05:04:45.486Z,2.70
2022-11-15T05:09:39.396Z,2.70
2022-11-15T05:12:11.351Z,2.60
2022-11-15T05:14:38.792Z,2.60
2022-11-15T05:17:11.924Z,2.60
2022-11-15T05:22:21.645Z,2.20
2022-11-15T05:28:06.244Z,2.30
2022-11-15T05:31:11.172Z,2.40
2022-11-15T05:33:40.339Z,2.50
2022-11-15T05:36:46.879Z,2.50
2022-11-15T05:41:54.286Z,2.30
2022-11-15T05:45:00.507Z,2.20
2022-11-15T05:47:39.733Z,2.10
2022-11-15T05:50:07.692Z,2.10
2022-11-15T17:01:50.541Z,8.80
2022-11-15T17:04:22.947Z,8.80
2022-11-15T17:06:52.024Z,8.80
2022-11-15T17:09:24.885Z,8.90
2022-11-15T17:11:53.038Z,8.90
2022-11-15T17:14:20.229Z,9.00
2022-11-15T17:16:47.633Z,8.90
2022-11-15T17:19:19.204Z,8.80
2022-11-15T17:21:47.312Z,8.70
2022-11-15T17:24:14.110Z,8.60
2022-11-15T17:26:42.837Z,8.50
2022-11-15T17:29:09.688Z,8.50
2022-11-15T17:31:36.981Z,8.40
2022-11-15T17:34:05.814Z,8.40
2022-11-15T17:36:33.007Z,8.40
2022-11-15T17:39:00.323Z,8.50
2022-11-15T17:41:28.981Z,8.40
2022-11-15T17:44:00.049Z,8.50
2022-11-15T17:46:28.645Z,8.40
2022-11-15T17:48:57.058Z,8.30
2022-11-15T17:51:24.134Z,8.40
2022-11-15T17:53:51.518Z,8.30
2022-11-15T17:56:20.774Z,8.30
2022-11-15T17:58:49.433Z,8.30
2022-11-15T18:01:24.413Z,8.30
2022-11-15T18:03:52.345Z,8.20
2022-11-15T18:06:20.759Z,8.20
2022-11-15T18:08:49.141Z,8.10
2022-11-15T18:11:21.896Z,8.10
2022-11-15T18:13:52.650Z,8.10
2022-11-15T18:16:22.468Z,8.10
2022-11-15T18:18:49.203Z,8.20
2022-11-15T18:21:21.765Z,8.20
2022-11-15T18:23:59.699Z,8.40
2022-11-15T18:26:29.051Z,8.40
2022-11-15T18:29:04.052Z,8.50
2022-11-15T18:31:31.559Z,8.60
2022-11-15T18:34:01.341Z,8.60
2022-11-15T18:36:30.059Z,8.60
2022-11-15T18:38:59.689Z,8.60
2022-11-15T18:41:30.782Z,8.40
2022-11-15T18:43:59.593Z,8.20
2022-11-15T18:46:29.047Z,8.10
2022-11-15T18:48:55.984Z,8.10
2022-11-15T18:51:27.581Z,8.10
2022-11-15T18:53:56.042Z,8.00
2022-11-15T18:56:24.362Z,7.90
2022-11-15T18:58:54.119Z,7.90
2022-11-15T19:01:35.701Z,7.90
2022-11-15T19:04:08.594Z,8.00
2022-11-15T19:06:41.603Z,7.90
2022-11-15T19:09:10.020Z,7.80
2022-11-15T19:11:39.444Z,7.90
2022-11-15T19:14:10.352Z,7.90
2022-11-15T19:16:39.900Z,7.80
2022-11-15T19:19:10.374Z,7.70
2022-11-15T19:21:37.433Z,7.70
2022-11-15T19:24:05.552Z,7.60
2022-11-15T19:26:32.896Z,7.60
2022-11-15T19:29:01.437Z,7.60
2022-11-15T19:31:32.111Z,7.60
2022-11-15T19:34:00.705Z,7.60
2022-11-15T19:36:32.683Z,7.70
2022-11-15T19:39:02.358Z,7.60
2022-11-15T19:41:29.653Z,7.70
2022-11-15T19:43:59.165Z,7.70
2022-11-15T19:46:26.960Z,7.80
2022-11-15T19:48:59.222Z,7.70
2022-11-15T19:51:29.440Z,7.60
2022-11-15T19:53:58.710Z,7.60
2022-11-15T19:56:25.834Z,7.60
2022-11-15T19:58:54.796Z,7.70
2022-11-15T20:01:22.979Z,7.80
2022-11-15T20:03:51.289Z,8.00
2022-11-15T20:06:20.522Z,8.10
2022-11-15T20:08:48.178Z,8.10
2022-11-15T20:11:15.883Z,8.20
2022-11-15T20:13:43.766Z,8.20
2022-11-15T20:16:16.786Z,8.20
2022-11-15T20:18:43.894Z,8.20
2022-11-15T20:21:10.724Z,8.20
2022-11-15T20:23:37.489Z,8.20
2022-11-15T20:26:04.406Z,8.30
2022-11-15T20:28:31.640Z,8.20
2022-11-15T20:31:00.682Z,8.20
2022-11-15T20:33:27.968Z,8.20
2022-11-15T20:35:55.141Z,8.30
2022-11-15T20:38:22.072Z,8.20
2022-11-15T20:40:50.075Z,8.20
2022-11-15T20:43:18.957Z,8.10
2022-11-15T20:45:50.502Z,8.20
2022-11-15T20:48:25.229Z,8.10
2022-11-15T20:50:52.249Z,8.00
2022-11-15T20:53:20.316Z,7.70
2022-11-15T20:55:49.823Z,7.70
2022-11-15T20:58:17.512Z,7.60
2022-11-15T21:00:45.681Z,7.50
2022-11-15T21:03:15.756Z,7.50
2022-11-15T21:05:44.349Z,7.40
2022-11-15T21:08:12.436Z,7.50
2022-11-15T21:13:47.185Z,7.50
2022-11-15T21:16:14.006Z,7.60
2022-11-15T21:18:40.750Z,7.70
2022-11-15T21:21:07.906Z,7.70
2022-11-15T21:23:43.944Z,7.50
2022-11-15T21:26:18.713Z,7.40
2022-11-15T21:28:45.814Z,7.40
2022-11-15T21:31:12.617Z,7.40
2022-11-15T21:33:39.427Z,7.50
2022-11-15T21:36:06.615Z,7.30
2022-11-15T21:38:33.926Z,7.30
2022-11-15T21:41:03.648Z,7.30
2022-11-15T21:43:30.598Z,7.30
2022-11-15T21:46:02.720Z,7.50
2022-11-15T21:48:32.291Z,7.60
2022-11-15T21:51:01.334Z,7.60
2022-11-15T21:53:38.635Z,7.60
2022-11-15T21:56:06.791Z,7.60
2022-11-15T21:58:34.156Z,7.50
2022-11-15T22:08:04.828Z,7.20
2022-11-15T22:10:34.852Z,7.10
2022-11-15T22:13:09.014Z,7.10
2022-11-15T22:15:35.939Z,7.00
2022-11-15T22:18:03.130Z,7.20
2022-11-15T22:20:44.230Z,7.10
2022-11-15T22:23:15.436Z,7.10
2022-11-15T22:25:43.105Z,7.10
2022-11-15T22:28:18.683Z,7.10
2022-11-15T22:34:49.273Z,7.10
2022-11-15T22:37:25.014Z,7.10
2022-11-15T22:39:54.580Z,7.20
2022-11-15T22:42:23.912Z,7.20
2022-11-15T22:44:51.370Z,7.20
2022-11-15T22:47:19.336Z,7.40
2022-11-15T22:50:06.774Z,7.40
2022-11-15T22:52:33.869Z,7.40
2022-11-15T22:55:00.801Z,7.40
2022-11-15T22:57:27.740Z,7.40
2022-11-15T22:59:55.307Z,7.40
2022-11-15T23:02:22.580Z,7.40
2022-11-15T23:04:49.640Z,7.40
2022-11-15T23:07:16.578Z,7.30
2022-11-15T23:09:47.768Z,7.40
2022-11-15T23:15:33.232Z,7.30
2022-11-15T23:18:00.540Z,7.30
2022-11-15T23:20:42.382Z,7.30
2022-11-15T23:23:10.859Z,7.30
2022-11-15T23:25:38.049Z,7.20
2022-11-15T23:28:06.451Z,7.30
2022-11-15T23:34:09.002Z,7.40
2022-11-15T23:36:44.630Z,7.30
2022-11-15T23:39:11.473Z,7.30
2022-11-15T23:41:38.523Z,7.30
2022-11-15T23:44:15.936Z,7.40
2022-11-15T23:46:42.977Z,7.30
2022-11-15T23:49:10.132Z,7.20
2022-11-15T23:52:20.669Z,7.20
2022-11-15T23:55:19.857Z,7.20
2022-11-15T23:57:46.922Z,7.30
